createdAt,value
2018-09-20T00:00:41.485Z,1012.28
2018-09-20T00:01:41.481Z,1012.26
2018-09-20T00:02:41.459Z,1012.29
2018-09-20T00:03:41.443Z,1012.29
2018-09-20T00:04:41.428Z,1012.25
2018-09-20T00:05:41.414Z,1012.23
2018-09-20T00:06:41.399Z,1012.24
2018-09-20T00:07:41.387Z,1012.27
2018-09-20T00:08:41.370Z,1012.21
2018-09-20T00:09:41.357Z,1012.21
2018-09-20T00:10:41.344Z,1012.26
2018-09-20T00:11:41.325Z,1012.21
2018-09-20T00:12:41.310Z,1012.23
2018-09-20T00:13:41.300Z,1012.22
2018-09-20T00:14:41.279Z,1012.21
2018-09-20T00:15:41.273Z,1012.20
2018-09-20T00:16:41.250Z,1012.19
2018-09-20T00:17:41.240Z,1012.21
2018-09-20T00:18:41.222Z,1012.18
2018-09-20T00:19:41.208Z,1012.12
2018-09-20T00:20:41.193Z,1012.12
2018-09-20T00:21:41.178Z,1012.09
2018-09-20T00:22:41.179Z,1012.08
2018-09-20T00:23:41.173Z,1012.07
2018-09-20T00:24:41.134Z,1012.05
2018-09-20T00:25:41.127Z,1012.06
2018-09-20T00:26:41.115Z,1012.03
2018-09-20T00:27:41.088Z,1012.04
2018-09-20T00:28:41.082Z,1012.05
2018-09-20T00:29:41.060Z,1012.05
2018-09-20T00:30:41.059Z,1012.03
2018-09-20T00:31:41.038Z,1012.02
2018-09-20T00:32:41.014Z,1012.03
2018-09-20T00:33:41.000Z,1012.03
2018-09-20T00:34:40.992Z,1011.99
2018-09-20T00:35:40.972Z,1011.96
2018-09-20T00:36:40.958Z,1011.96
2018-09-20T00:37:40.946Z,1011.96
2018-09-20T00:38:40.926Z,1011.96
2018-09-20T00:39:40.911Z,1011.95
2018-09-20T00:40:40.903Z,1011.89
2018-09-20T00:41:40.887Z,1011.89
2018-09-20T00:42:40.893Z,1011.90
2018-09-20T00:43:40.858Z,1011.87
2018-09-20T00:44:40.837Z,1011.85
2018-09-20T00:45:40.822Z,1011.87
2018-09-20T00:46:40.814Z,1011.86
2018-09-20T00:47:40.795Z,1011.86
2018-09-20T00:48:40.782Z,1011.82
2018-09-20T00:49:40.763Z,1011.84
2018-09-20T00:50:40.749Z,1011.86
2018-09-20T00:51:40.734Z,1011.85
2018-09-20T00:52:40.718Z,1011.82
2018-09-20T00:53:40.702Z,1011.84
2018-09-20T00:54:40.689Z,1011.84
2018-09-20T00:55:40.674Z,1011.85
2018-09-20T00:56:40.658Z,1011.80
2018-09-20T00:57:40.645Z,1011.85
2018-09-20T00:58:40.643Z,1011.84
2018-09-20T00:59:40.624Z,1011.84
2018-09-20T01:00:40.599Z,1011.84
2018-09-20T01:01:40.583Z,1011.85
2018-09-20T01:02:40.566Z,1011.80
2018-09-20T01:03:40.570Z,1011.80
2018-09-20T01:04:40.540Z,1011.88
2018-09-20T01:05:40.524Z,1011.87
2018-09-20T01:06:40.508Z,1011.89
2018-09-20T01:07:40.494Z,1011.87
2018-09-20T01:08:40.478Z,1011.88
2018-09-20T01:09:40.466Z,1011.85
2018-09-20T01:10:40.465Z,1011.90
2018-09-20T01:11:40.435Z,1011.87
2018-09-20T01:12:40.430Z,1011.88
2018-09-20T01:13:40.406Z,1011.86
2018-09-20T01:14:40.396Z,1011.91
2018-09-20T01:15:40.376Z,1011.84
2018-09-20T01:16:40.361Z,1011.86
2018-09-20T01:17:40.344Z,1011.81
2018-09-20T01:18:40.341Z,1011.81
2018-09-20T01:19:40.314Z,1011.82
2018-09-20T01:20:40.306Z,1011.83
2018-09-20T01:21:40.285Z,1011.81
2018-09-20T01:22:40.269Z,1011.80
2018-09-20T01:23:40.254Z,1011.82
2018-09-20T01:24:40.240Z,1011.81
2018-09-20T01:25:40.225Z,1011.85
2018-09-20T01:26:40.212Z,1011.83
2018-09-20T01:27:40.194Z,1011.81
2018-09-20T01:28:40.179Z,1011.81
2018-09-20T01:29:40.163Z,1011.83
2018-09-20T01:30:40.148Z,1011.82
2018-09-20T01:31:40.143Z,1011.86
2018-09-20T01:32:40.123Z,1011.81
2018-09-20T01:33:40.104Z,1011.83
2018-09-20T01:34:40.094Z,1011.81
2018-09-20T01:35:40.075Z,1011.83
2018-09-20T01:36:40.059Z,1011.80
2018-09-20T01:37:40.048Z,1011.81
2018-09-20T01:38:40.141Z,1011.81
2018-09-20T01:39:40.014Z,1011.81
2018-09-20T01:40:40.001Z,1011.81
2018-09-20T01:41:39.982Z,1011.80
2018-09-20T01:42:39.966Z,1011.82
2018-09-20T01:43:39.957Z,1011.81
2018-09-20T01:44:39.943Z,1011.84
2018-09-20T01:45:39.927Z,1011.83
2018-09-20T01:46:39.911Z,1011.86
2018-09-20T01:47:39.892Z,1011.84
2018-09-20T01:48:39.881Z,1011.83
2018-09-20T01:49:39.865Z,1011.81
2018-09-20T01:50:39.845Z,1011.79
2018-09-20T01:51:39.835Z,1011.83
2018-09-20T01:52:39.818Z,1011.80
2018-09-20T01:53:39.806Z,1011.80
2018-09-20T01:54:39.794Z,1011.83
2018-09-20T01:55:39.776Z,1011.83
2018-09-20T01:56:39.755Z,1011.84
2018-09-20T01:57:39.740Z,1011.83
2018-09-20T01:58:39.726Z,1011.86
2018-09-20T01:59:39.710Z,1011.80
2018-09-20T02:00:39.695Z,1011.81
2018-09-20T02:01:39.679Z,1011.80
2018-09-20T02:02:39.665Z,1011.85
2018-09-20T02:03:39.656Z,1011.88
2018-09-20T02:04:39.634Z,1011.86
2018-09-20T02:05:39.618Z,1011.86
2018-09-20T02:06:39.603Z,1011.88
2018-09-20T02:07:39.591Z,1011.89
2018-09-20T02:08:39.572Z,1011.88
2018-09-20T02:09:39.565Z,1011.88
2018-09-20T02:10:39.541Z,1011.86
2018-09-20T02:11:39.527Z,1011.86
2018-09-20T02:12:39.514Z,1011.89
2018-09-20T02:13:39.498Z,1011.90
2018-09-20T02:14:39.488Z,1011.94
2018-09-20T02:15:39.469Z,1011.92
2018-09-20T02:16:39.450Z,1011.90
2018-09-20T02:17:39.435Z,1011.90
2018-09-20T02:18:39.419Z,1011.93
2018-09-20T02:19:39.403Z,1011.90
2018-09-20T02:20:39.390Z,1011.92
2018-09-20T02:21:39.373Z,1011.90
2018-09-20T02:22:39.357Z,1011.91
2018-09-20T02:23:39.342Z,1011.91
2018-09-20T02:24:39.481Z,1011.95
2018-09-20T02:25:39.311Z,1011.94
2018-09-20T02:26:39.295Z,1011.93
2018-09-20T02:27:39.381Z,1011.99
2018-09-20T02:28:39.268Z,1011.96
2018-09-20T02:29:39.250Z,1011.97
2018-09-20T02:30:39.252Z,1011.97
2018-09-20T02:31:39.227Z,1011.96
2018-09-20T02:32:39.212Z,1011.97
2018-09-20T02:33:39.188Z,1011.98
2018-09-20T02:34:39.172Z,1011.97
2018-09-20T02:35:39.157Z,1011.99
2018-09-20T02:36:39.150Z,1011.98
2018-09-20T02:37:39.128Z,1011.97
2018-09-20T02:38:39.112Z,1012.00
2018-09-20T02:39:39.101Z,1011.97
2018-09-20T02:40:39.080Z,1012.00
2018-09-20T02:41:39.075Z,1011.96
2018-09-20T02:42:39.058Z,1011.96
2018-09-20T02:43:39.036Z,1011.97
2018-09-20T02:44:39.036Z,1011.93
2018-09-20T02:45:39.003Z,1011.93
2018-09-20T02:46:38.988Z,1011.93
2018-09-20T02:47:38.972Z,1011.92
2018-09-20T02:48:38.987Z,1011.90
2018-09-20T02:49:38.943Z,1011.92
2018-09-20T02:50:38.925Z,1011.89
2018-09-20T02:51:38.912Z,1011.86
2018-09-20T02:52:38.897Z,1011.89
2018-09-20T02:53:38.889Z,1011.88
2018-09-20T02:54:38.864Z,1011.91
2018-09-20T02:55:38.849Z,1011.88
2018-09-20T02:56:38.834Z,1011.84
2018-09-20T02:57:38.819Z,1011.84
2018-09-20T02:58:38.803Z,1011.83
2018-09-20T02:59:38.788Z,1011.81
2018-09-20T03:00:38.781Z,1011.80
2018-09-20T03:01:38.765Z,1011.81
2018-09-20T03:02:38.741Z,1011.79
2018-09-20T03:03:38.728Z,1011.79
2018-09-20T03:04:38.710Z,1011.78
2018-09-20T03:05:38.733Z,1011.78
2018-09-20T03:06:38.679Z,1011.74
2018-09-20T03:07:38.664Z,1011.77
2018-09-20T03:08:38.650Z,1011.81
2018-09-20T03:09:38.634Z,1011.78
2018-09-20T03:10:38.616Z,1011.77
2018-09-20T03:11:38.602Z,1011.80
2018-09-20T03:12:38.588Z,1011.78
2018-09-20T03:13:38.622Z,1011.78
2018-09-20T03:14:38.565Z,1011.79
2018-09-20T03:15:38.540Z,1011.80
2018-09-20T03:16:38.524Z,1011.80
2018-09-20T03:17:38.509Z,1011.80
2018-09-20T03:18:38.496Z,1011.77
2018-09-20T03:19:38.476Z,1011.76
2018-09-20T03:20:38.475Z,1011.79
2018-09-20T03:21:38.453Z,1011.79
2018-09-20T03:22:38.433Z,1011.83
2018-09-20T03:23:38.542Z,1011.78
2018-09-20T03:24:38.399Z,1011.78
2018-09-20T03:25:38.383Z,1011.79
2018-09-20T03:26:38.366Z,1011.81
2018-09-20T03:27:38.350Z,1011.81
2018-09-20T03:28:38.336Z,1011.80
2018-09-20T03:29:38.331Z,1011.81
2018-09-20T03:30:38.380Z,1011.78
2018-09-20T03:31:38.307Z,1011.74
2018-09-20T03:32:38.281Z,1011.78
2018-09-20T03:33:38.259Z,1011.78
2018-09-20T03:34:38.300Z,1011.75
2018-09-20T03:35:38.243Z,1011.77
2018-09-20T03:36:38.212Z,1011.78
2018-09-20T03:37:38.196Z,1011.81
2018-09-20T03:38:38.188Z,1011.79
2018-09-20T03:39:38.168Z,1011.84
2018-09-20T03:40:38.148Z,1011.81
2018-09-20T03:41:38.135Z,1011.84
2018-09-20T03:42:38.122Z,1011.83
2018-09-20T03:43:38.103Z,1011.85
2018-09-20T03:44:38.089Z,1011.83
2018-09-20T03:45:38.074Z,1011.84
2018-09-20T03:46:38.058Z,1011.84
2018-09-20T03:47:38.040Z,1011.82
2018-09-20T03:48:38.026Z,1011.83
2018-09-20T03:49:38.010Z,1011.83
2018-09-20T03:50:38.148Z,1011.85
2018-09-20T03:51:37.978Z,1011.83
2018-09-20T03:52:37.972Z,1011.86
2018-09-20T03:53:37.949Z,1011.88
2018-09-20T03:54:37.933Z,1011.90
2018-09-20T03:55:37.928Z,1011.88
2018-09-20T03:56:37.903Z,1011.87
2018-09-20T03:57:37.886Z,1011.87
2018-09-20T03:58:37.869Z,1011.89
2018-09-20T03:59:37.854Z,1011.88
2018-09-20T04:00:37.840Z,1011.91
2018-09-20T04:01:37.836Z,1011.87
2018-09-20T04:02:37.810Z,1011.92
2018-09-20T04:03:37.800Z,1011.91
2018-09-20T04:04:37.779Z,1011.90
2018-09-20T04:05:37.764Z,1011.90
2018-09-20T04:06:37.807Z,1011.92
2018-09-20T04:07:37.732Z,1011.88
2018-09-20T04:08:37.716Z,1011.88
2018-09-20T04:09:37.752Z,1011.88
2018-09-20T04:10:37.684Z,1011.88
2018-09-20T04:11:37.668Z,1011.89
2018-09-20T04:12:37.653Z,1011.85
2018-09-20T04:13:37.650Z,1011.89
2018-09-20T04:14:37.624Z,1011.89
2018-09-20T04:15:37.608Z,1011.89
2018-09-20T04:16:37.597Z,1011.89
2018-09-20T04:17:37.573Z,1011.85
2018-09-20T04:18:37.563Z,1011.91
2018-09-20T04:19:37.542Z,1011.88
2018-09-20T04:20:37.530Z,1011.87
2018-09-20T04:21:37.512Z,1011.87
2018-09-20T04:22:37.498Z,1011.83
2018-09-20T04:23:37.482Z,1011.86
2018-09-20T04:24:37.473Z,1011.85
2018-09-20T04:25:37.449Z,1011.85
2018-09-20T04:26:37.432Z,1011.87
2018-09-20T04:27:37.416Z,1011.84
2018-09-20T04:28:37.407Z,1011.87
2018-09-20T04:29:37.393Z,1011.87
2018-09-20T04:30:37.371Z,1011.84
2018-09-20T04:32:41.610Z,1011.83
2018-09-20T04:33:41.592Z,1011.84
2018-09-20T04:34:41.578Z,1011.83
2018-09-20T04:35:41.563Z,1011.86
2018-09-20T04:36:41.547Z,1011.86
2018-09-20T04:37:41.663Z,1011.84
2018-09-20T04:38:41.514Z,1011.84
2018-09-20T04:39:41.499Z,1011.87
2018-09-20T04:40:41.493Z,1011.90
2018-09-20T04:41:41.472Z,1011.91
2018-09-20T04:42:41.458Z,1011.93
2018-09-20T04:43:41.444Z,1011.93
2018-09-20T04:44:41.435Z,1011.94
2018-09-20T04:45:41.405Z,1011.90
2018-09-20T04:46:41.389Z,1011.90
2018-09-20T04:47:41.372Z,1011.89
2018-09-20T04:48:41.360Z,1011.92
2018-09-20T04:49:41.341Z,1011.91
2018-09-20T04:50:41.332Z,1011.92
2018-09-20T04:51:41.311Z,1011.90
2018-09-20T04:52:41.294Z,1011.88
2018-09-20T04:53:41.287Z,1011.88
2018-09-20T04:54:41.265Z,1011.91
2018-09-20T04:55:41.270Z,1011.93
2018-09-20T04:56:41.331Z,1011.93
2018-09-20T04:57:41.214Z,1011.88
2018-09-20T04:58:41.201Z,1011.89
2018-09-20T04:59:41.194Z,1011.90
2018-09-20T05:00:41.174Z,1011.90
2018-09-20T05:01:41.152Z,1011.89
2018-09-20T05:02:41.138Z,1011.90
2018-09-20T05:03:41.121Z,1011.87
2018-09-20T05:04:41.104Z,1011.91
2018-09-20T05:05:41.089Z,1011.86
2018-09-20T05:06:41.073Z,1011.88
2018-09-20T05:07:41.065Z,1011.91
2018-09-20T05:08:41.044Z,1011.89
2018-09-20T05:09:41.036Z,1011.87
2018-09-20T05:10:41.014Z,1011.88
2018-09-20T05:11:41.003Z,1011.92
2018-09-20T05:12:40.980Z,1011.84
2018-09-20T05:13:40.963Z,1011.84
2018-09-20T05:14:40.948Z,1011.84
2018-09-20T05:15:40.932Z,1011.84
2018-09-20T05:16:40.916Z,1011.86
2018-09-20T05:17:40.900Z,1011.83
2018-09-20T05:18:40.894Z,1011.86
2018-09-20T05:19:40.873Z,1011.86
2018-09-20T05:20:40.876Z,1011.85
2018-09-20T05:21:40.844Z,1011.84
2018-09-20T05:22:40.821Z,1011.84
2018-09-20T05:23:40.807Z,1011.85
2018-09-20T05:24:40.804Z,1011.84
2018-09-20T05:25:40.776Z,1011.83
2018-09-20T05:26:40.761Z,1011.84
2018-09-20T05:27:40.753Z,1011.84
2018-09-20T05:28:40.726Z,1011.84
2018-09-20T05:29:40.713Z,1011.81
2018-09-20T05:30:40.700Z,1011.78
2018-09-20T05:31:40.679Z,1011.85
2018-09-20T05:32:40.666Z,1011.83
2018-09-20T05:33:40.648Z,1011.84
2018-09-20T05:34:40.639Z,1011.80
2018-09-20T05:35:40.625Z,1011.84
2018-09-20T05:36:40.608Z,1011.85
2018-09-20T05:37:40.591Z,1011.85
2018-09-20T05:38:40.572Z,1011.85
2018-09-20T05:39:40.554Z,1011.88
2018-09-20T05:40:40.550Z,1011.85
2018-09-20T05:41:40.521Z,1011.80
2018-09-20T05:42:40.508Z,1011.86
2018-09-20T05:43:40.568Z,1011.85
2018-09-20T05:44:40.478Z,1011.87
2018-09-20T05:45:40.460Z,1011.91
2018-09-20T05:46:40.451Z,1011.93
2018-09-20T05:47:40.426Z,1011.90
2018-09-20T05:48:40.420Z,1011.92
2018-09-20T05:49:40.394Z,1011.91
2018-09-20T05:50:40.393Z,1011.90
2018-09-20T05:51:40.374Z,1011.89
2018-09-20T05:52:40.349Z,1011.82
2018-09-20T05:53:40.335Z,1011.83
2018-09-20T05:54:40.319Z,1011.80
2018-09-20T05:55:40.303Z,1011.80
2018-09-20T05:56:40.304Z,1011.84
2018-09-20T05:57:40.272Z,1011.78
2018-09-20T05:58:40.267Z,1011.80
2018-09-20T05:59:40.241Z,1011.82
2018-09-20T06:00:40.227Z,1011.82
2018-09-20T06:01:40.210Z,1011.82
2018-09-20T06:02:40.207Z,1011.84
2018-09-20T06:03:40.178Z,1011.83
2018-09-20T06:04:40.162Z,1011.84
2018-09-20T06:05:40.186Z,1011.82
2018-09-20T06:06:40.142Z,1011.81
2018-09-20T06:07:40.118Z,1011.81
2018-09-20T06:08:40.102Z,1011.81
2018-09-20T06:09:40.157Z,1011.80
2018-09-20T06:10:40.081Z,1011.85
2018-09-20T06:11:40.054Z,1011.84
2018-09-20T06:12:40.063Z,1011.85
2018-09-20T06:13:40.025Z,1011.83
2018-09-20T06:14:40.009Z,1011.84
2018-09-20T06:15:39.992Z,1011.85
2018-09-20T06:16:39.980Z,1011.85
2018-09-20T06:17:39.962Z,1011.89
2018-09-20T06:18:39.945Z,1011.86
2018-09-20T06:19:39.931Z,1011.87
2018-09-20T06:20:39.913Z,1011.85
2018-09-20T06:21:39.905Z,1011.86
2018-09-20T06:22:39.884Z,1011.85
2018-09-20T06:23:39.872Z,1011.86
2018-09-20T06:24:39.853Z,1011.82
2018-09-20T06:25:39.846Z,1011.83
2018-09-20T06:26:39.832Z,1011.82
2018-09-20T06:27:39.907Z,1011.83
2018-09-20T06:28:39.796Z,1011.85
2018-09-20T06:29:39.781Z,1011.86
2018-09-20T06:30:39.768Z,1011.85
2018-09-20T06:31:39.747Z,1011.85
2018-09-20T06:32:39.728Z,1011.83
2018-09-20T06:33:39.719Z,1011.86
2018-09-20T06:34:39.699Z,1011.86
2018-09-20T06:35:39.685Z,1011.87
2018-09-20T06:36:39.667Z,1011.88
2018-09-20T06:37:39.653Z,1011.88
2018-09-20T06:38:39.636Z,1011.91
2018-09-20T06:39:39.628Z,1011.93
2018-09-20T06:40:39.606Z,1011.95
2018-09-20T06:41:39.591Z,1011.94
2018-09-20T06:42:39.577Z,1011.99
2018-09-20T06:43:39.562Z,1011.98
2018-09-20T06:44:39.554Z,1011.98
2018-09-20T06:45:39.528Z,1011.93
2018-09-20T06:46:39.517Z,1011.95
2018-09-20T06:47:39.509Z,1011.95
2018-09-20T06:48:39.483Z,1011.95
2018-09-20T06:49:39.468Z,1011.94
2018-09-20T06:50:39.461Z,1011.93
2018-09-20T06:51:39.440Z,1011.93
2018-09-20T06:52:39.426Z,1011.95
2018-09-20T06:53:39.407Z,1011.89
2018-09-20T06:54:39.396Z,1011.89
2018-09-20T06:55:39.378Z,1011.91
2018-09-20T06:56:39.405Z,1011.92
2018-09-20T06:57:39.349Z,1011.93
2018-09-20T06:58:39.336Z,1011.92
2018-09-20T06:59:39.317Z,1011.92
2018-09-20T07:00:39.303Z,1011.95
2018-09-20T07:01:39.289Z,1011.94
2018-09-20T07:02:39.271Z,1011.97
2018-09-20T07:03:39.258Z,1011.91
2018-09-20T07:04:39.245Z,1011.93
2018-09-20T07:05:39.235Z,1011.88
2018-09-20T07:06:39.211Z,1011.90
2018-09-20T07:07:39.206Z,1011.87
2018-09-20T07:08:39.182Z,1011.84
2018-09-20T07:09:39.174Z,1011.83
2018-09-20T07:10:39.151Z,1011.82
2018-09-20T07:11:39.137Z,1011.81
2018-09-20T07:12:39.138Z,1011.81
2018-09-20T07:13:39.171Z,1011.80
2018-09-20T07:14:39.206Z,1011.81
2018-09-20T07:15:39.079Z,1011.81
2018-09-20T07:16:39.070Z,1011.81
2018-09-20T07:17:39.101Z,1011.81
2018-09-20T07:18:39.036Z,1011.78
2018-09-20T07:19:39.020Z,1011.81
2018-09-20T07:20:39.005Z,1011.78
2018-09-20T07:21:38.989Z,1011.82
2018-09-20T07:22:38.974Z,1011.79
2018-09-20T07:23:38.958Z,1011.77
2018-09-20T07:24:38.950Z,1011.80
2018-09-20T07:25:38.977Z,1011.81
2018-09-20T07:26:38.915Z,1011.78
2018-09-20T07:27:38.901Z,1011.77
2018-09-20T07:28:38.885Z,1011.78
2018-09-20T07:29:38.869Z,1011.75
2018-09-20T07:30:38.856Z,1011.76
2018-09-20T07:31:38.844Z,1011.77
2018-09-20T07:32:38.888Z,1011.79
2018-09-20T07:33:38.811Z,1011.77
2018-09-20T07:34:38.797Z,1011.79
2018-09-20T07:35:38.793Z,1011.83
2018-09-20T07:36:38.770Z,1011.82
2018-09-20T07:37:38.755Z,1011.82
2018-09-20T07:38:38.737Z,1011.77
2018-09-20T07:39:38.723Z,1011.84
2018-09-20T07:40:38.712Z,1011.84
2018-09-20T07:41:38.694Z,1011.81
2018-09-20T07:42:38.679Z,1011.75
2018-09-20T07:43:38.748Z,1011.75
2018-09-20T07:44:38.653Z,1011.78
2018-09-20T07:45:38.635Z,1011.81
2018-09-20T07:46:38.619Z,1011.78
2018-09-20T07:47:38.606Z,1011.80
2018-09-20T07:48:38.593Z,1011.86
2018-09-20T07:49:38.584Z,1011.84
2018-09-20T07:50:38.564Z,1011.85
2018-09-20T07:51:38.559Z,1011.89
2018-09-20T07:52:38.536Z,1011.91
2018-09-20T07:53:38.626Z,1011.90
2018-09-20T07:54:38.519Z,1011.90
2018-09-20T07:55:38.500Z,1011.94
2018-09-20T07:56:38.509Z,1011.95
2018-09-20T07:57:38.617Z,1011.93
2018-09-20T07:58:38.452Z,1011.92
2018-09-20T07:59:38.446Z,1011.90
2018-09-20T08:00:38.445Z,1011.92
2018-09-20T08:01:38.496Z,1011.95
2018-09-20T08:02:38.396Z,1011.95
2018-09-20T08:03:38.384Z,1012.01
2018-09-20T08:04:38.984Z,1012.01
2018-09-20T08:05:38.364Z,1011.97
2018-09-20T08:06:38.343Z,1011.96
2018-09-20T08:07:38.339Z,1011.93
2018-09-20T08:08:38.324Z,1011.89
2018-09-20T08:09:38.307Z,1011.93
2018-09-20T08:10:38.296Z,1011.95
2018-09-20T08:11:38.276Z,1011.96
2018-09-20T08:12:38.276Z,1011.95
2018-09-20T08:13:38.250Z,1011.95
2018-09-20T08:14:38.244Z,1012.00
2018-09-20T08:15:38.223Z,1011.94
2018-09-20T08:16:38.210Z,1011.91
2018-09-20T08:17:38.196Z,1012.00
2018-09-20T08:18:38.185Z,1012.01
2018-09-20T08:19:40.794Z,1012.05
2018-09-20T08:20:38.163Z,1012.02
2018-09-20T08:21:38.193Z,1012.02
2018-09-20T08:22:38.142Z,1012.01
2018-09-20T08:23:38.119Z,1012.07
2018-09-20T08:24:38.111Z,1012.00
2018-09-20T08:25:38.093Z,1012.07
2018-09-20T08:26:38.079Z,1012.06
2018-09-20T08:27:38.069Z,1012.01
2018-09-20T08:28:38.067Z,1012.02
2018-09-20T08:29:38.040Z,1011.96
2018-09-20T08:30:38.028Z,1012.00
2018-09-20T08:31:38.015Z,1011.98
2018-09-20T08:32:38.004Z,1012.00
2018-09-20T08:33:37.994Z,1012.07
2018-09-20T08:34:37.978Z,1012.01
2018-09-20T08:35:37.965Z,1012.04
2018-09-20T08:36:37.962Z,1012.03
2018-09-20T08:37:37.996Z,1012.01
2018-09-20T08:38:37.943Z,1012.01
2018-09-20T08:39:37.913Z,1012.00
2018-09-20T08:40:37.953Z,1012.01
2018-09-20T08:41:37.891Z,1012.01
2018-09-20T08:42:37.884Z,1012.04
2018-09-20T08:43:37.867Z,1012.02
2018-09-20T08:44:37.851Z,1012.01
2018-09-20T08:45:37.839Z,1012.00
2018-09-20T08:46:37.827Z,1011.97
2018-09-20T08:47:37.817Z,1011.97
2018-09-20T08:48:37.801Z,1011.95
2018-09-20T08:49:37.790Z,1011.94
2018-09-20T08:50:37.793Z,1011.96
2018-09-20T08:51:37.766Z,1011.93
2018-09-20T08:52:37.753Z,1011.91
2018-09-20T08:53:39.156Z,1012.00
2018-09-20T08:54:37.729Z,1012.03
2018-09-20T08:55:37.720Z,1012.15
2018-09-20T08:56:37.727Z,1012.13
2018-09-20T08:57:37.696Z,1012.01
2018-09-20T08:58:37.686Z,1011.98
2018-09-20T08:59:37.769Z,1011.97
2018-09-20T09:00:37.657Z,1011.98
2018-09-20T09:01:37.646Z,1012.01
2018-09-20T09:02:37.632Z,1011.94
2018-09-20T09:03:37.633Z,1012.04
2018-09-20T09:04:37.637Z,1011.91
2018-09-20T09:05:37.604Z,1012.03
2018-09-20T09:06:37.592Z,1012.05
2018-09-20T09:07:37.581Z,1012.01
2018-09-20T09:08:37.568Z,1011.97
2018-09-20T09:10:24.655Z,1011.92
2018-09-20T09:11:21.828Z,1011.86
2018-09-20T09:13:15.910Z,1011.80
2018-09-20T09:14:15.890Z,1011.80
2018-09-20T09:15:15.881Z,1011.76
2018-09-20T09:16:15.887Z,1011.76
2018-09-20T09:17:15.859Z,1011.74
2018-09-20T09:18:15.847Z,1011.76
2018-09-20T09:19:15.842Z,1011.74
2018-09-20T09:20:15.832Z,1011.66
2018-09-20T09:21:15.818Z,1011.66
2018-09-20T09:22:15.807Z,1011.66
2018-09-20T09:23:15.793Z,1011.63
2018-09-20T09:24:15.784Z,1011.62
2018-09-20T09:25:15.775Z,1011.60
2018-09-20T09:26:15.763Z,1011.60
2018-09-20T09:27:15.762Z,1011.56
2018-09-20T09:28:15.743Z,1011.57
2018-09-20T09:29:15.728Z,1011.55
2018-09-20T09:30:15.724Z,1011.67
2018-09-20T09:31:15.709Z,1011.57
2018-09-20T09:32:15.701Z,1011.58
2018-09-20T09:33:15.685Z,1011.67
2018-09-20T09:34:15.708Z,1011.79
2018-09-20T09:35:19.324Z,1011.82
2018-09-20T09:36:15.653Z,1011.70
2018-09-20T09:37:59.573Z,1011.74
2018-09-20T09:38:59.563Z,1011.75
2018-09-20T09:39:59.570Z,1011.77
2018-09-20T09:40:59.544Z,1011.78
2018-09-20T09:41:59.536Z,1011.73
2018-09-20T09:42:59.524Z,1011.71
2018-09-20T09:44:00.332Z,1011.70
2018-09-20T09:44:59.507Z,1011.74
2018-09-20T09:45:59.548Z,1011.70
2018-09-20T09:46:59.495Z,1011.67
2018-09-20T09:47:59.487Z,1011.73
2018-09-20T09:48:59.486Z,1011.75
2018-09-20T09:49:59.485Z,1011.74
2018-09-20T09:50:59.460Z,1011.72
2018-09-20T09:51:59.462Z,1011.79
2018-09-20T09:52:59.466Z,1011.78
2018-09-20T09:53:59.449Z,1011.79
2018-09-20T09:54:59.433Z,1011.78
2018-09-20T09:55:59.445Z,1011.75
2018-09-20T09:56:59.424Z,1011.79
2018-09-20T09:57:59.420Z,1011.83
2018-09-20T09:58:59.426Z,1011.77
2018-09-20T09:59:59.405Z,1011.75
2018-09-20T10:00:59.397Z,1011.81
2018-09-20T10:01:59.391Z,1011.80
2018-09-20T10:02:59.385Z,1011.72
2018-09-20T10:03:59.390Z,1011.67
2018-09-20T10:04:59.374Z,1011.54
2018-09-20T10:05:59.374Z,1011.63
2018-09-20T10:06:59.405Z,1011.40
2018-09-20T10:07:59.364Z,1011.36
2018-09-20T10:08:59.350Z,1011.60
2018-09-20T10:09:59.346Z,1011.57
2018-09-20T10:10:59.340Z,1011.36
2018-09-20T10:11:59.340Z,1011.47
2018-09-20T10:12:59.327Z,1011.49
2018-09-20T10:13:59.321Z,1011.60
2018-09-20T10:14:59.327Z,1011.68
2018-09-20T10:15:59.313Z,1011.36
2018-09-20T10:16:59.302Z,1011.30
2018-09-20T10:17:59.303Z,1011.48
2018-09-20T10:18:59.287Z,1011.35
2018-09-20T10:19:59.348Z,1011.45
2018-09-20T10:20:59.276Z,1011.47
2018-09-20T10:21:59.269Z,1011.37
2018-09-20T10:22:59.262Z,1011.18
2018-09-20T10:23:59.300Z,1011.29
2018-09-20T10:24:59.255Z,1011.47
2018-09-20T10:25:59.244Z,1011.41
2018-09-20T10:26:59.242Z,1011.36
2018-09-20T10:27:59.297Z,1011.32
2018-09-20T10:28:59.228Z,1011.29
2018-09-20T10:29:59.228Z,1011.21
2018-09-20T10:30:59.214Z,1011.10
2018-09-20T10:31:59.203Z,1011.22
2018-09-20T10:32:59.196Z,1011.14
2018-09-20T10:33:59.242Z,1011.19
2018-09-20T10:34:59.179Z,1011.27
2018-09-20T10:35:59.226Z,1011.17
2018-09-20T10:36:59.183Z,1011.21
2018-09-20T10:37:59.158Z,1011.28
2018-09-20T10:38:59.152Z,1011.21
2018-09-20T10:39:59.152Z,1011.16
2018-09-20T10:40:59.137Z,1011.15
2018-09-20T10:41:59.151Z,1011.21
2018-09-20T10:42:59.139Z,1011.20
2018-09-20T10:43:59.129Z,1011.14
2018-09-20T10:44:59.127Z,1011.18
2018-09-20T10:45:59.133Z,1011.19
2018-09-20T10:46:59.114Z,1011.15
2018-09-20T10:47:59.091Z,1011.09
2018-09-20T10:48:59.086Z,1011.17
2018-09-20T10:49:59.077Z,1011.15
2018-09-20T10:50:59.088Z,1011.17
2018-09-20T10:51:59.067Z,1011.12
2018-09-20T10:52:59.071Z,1011.12
2018-09-20T10:53:59.057Z,1011.08
2018-09-20T10:54:59.044Z,1011.10
2018-09-20T10:55:59.045Z,1011.07
2018-09-20T10:56:59.046Z,1011.01
2018-09-20T10:57:59.028Z,1011.09
2018-09-20T10:58:59.018Z,1011.08
2018-09-20T10:59:59.018Z,1011.10
2018-09-20T11:00:59.006Z,1011.04
2018-09-20T11:01:59.000Z,1011.03
2018-09-20T11:02:59.060Z,1011.12
2018-09-20T11:03:58.988Z,1011.13
2018-09-20T11:04:58.986Z,1011.05
2018-09-20T11:05:58.971Z,1011.06
2018-09-20T11:06:58.968Z,1011.00
2018-09-20T11:07:58.968Z,1011.04
2018-09-20T11:08:58.961Z,1010.97
2018-09-20T11:09:58.954Z,1011.05
2018-09-20T11:10:59.011Z,1010.94
2018-09-20T11:11:58.930Z,1010.98
2018-09-20T11:12:58.923Z,1011.07
2018-09-20T11:13:58.916Z,1011.15
2018-09-20T11:14:58.919Z,1011.08
2018-09-20T11:15:58.912Z,1011.18
2018-09-20T11:16:58.907Z,1011.04
2018-09-20T11:17:58.887Z,1011.05
2018-09-20T11:18:58.881Z,1011.03
2018-09-20T11:19:58.873Z,1010.97
2018-09-20T11:20:58.865Z,1010.92
2018-09-20T11:21:58.859Z,1010.88
2018-09-20T11:22:58.850Z,1010.98
2018-09-20T11:23:58.844Z,1011.08
2018-09-20T11:24:58.837Z,1011.08
2018-09-20T11:25:58.852Z,1011.14
2018-09-20T11:26:58.836Z,1011.20
2018-09-20T11:27:58.814Z,1010.92
2018-09-20T11:28:58.806Z,1011.09
2018-09-20T11:29:58.804Z,1011.15
2018-09-20T11:30:58.795Z,1011.21
2018-09-20T11:31:58.792Z,1011.26
2018-09-20T11:32:58.775Z,1011.13
2018-09-20T11:33:58.767Z,1011.28
2018-09-20T11:34:58.757Z,1011.24
2018-09-20T11:35:58.751Z,1011.32
2018-09-20T11:36:58.743Z,1011.00
2018-09-20T11:37:58.749Z,1011.30
2018-09-20T11:38:58.743Z,1011.24
2018-09-20T11:39:58.725Z,1011.37
2018-09-20T11:40:58.712Z,1011.36
2018-09-20T11:41:58.707Z,1011.23
2018-09-20T11:42:58.696Z,1011.52
2018-09-20T11:43:58.690Z,1011.02
2018-09-20T11:44:58.682Z,1011.05
2018-09-20T11:45:58.674Z,1011.03
2018-09-20T11:46:58.821Z,1010.95
2018-09-20T11:47:58.663Z,1010.92
2018-09-20T11:48:58.653Z,1010.93
2018-09-20T11:49:58.643Z,1010.96
2018-09-20T11:50:58.643Z,1010.92
2018-09-20T11:51:58.629Z,1010.99
2018-09-20T11:52:58.622Z,1010.93
2018-09-20T11:53:58.619Z,1010.93
2018-09-20T11:54:58.602Z,1010.84
2018-09-20T11:55:58.596Z,1010.91
2018-09-20T11:56:58.587Z,1010.93
2018-09-20T11:57:58.576Z,1010.89
2018-09-20T11:58:58.578Z,1010.87
2018-09-20T11:59:58.577Z,1010.92
2018-09-20T12:00:58.557Z,1010.90
2018-09-20T12:01:58.606Z,1010.87
2018-09-20T12:02:58.536Z,1010.81
2018-09-20T12:03:58.536Z,1010.82
2018-09-20T12:04:58.531Z,1010.86
2018-09-20T12:05:58.520Z,1010.91
2018-09-20T12:06:58.521Z,1010.83
2018-09-20T12:07:58.508Z,1010.86
2018-09-20T12:08:58.497Z,1010.87